Time;durP1;ratioP1;P1;durP2;ratioP2;P2;SDS_P1;SDS_P2;PMS_P1;PMS_P2;Temp;Humidity;BMP_temperature;BMP_pressure;BME280_temperature;BME280_humidity;BME280_pressure;Samples;Min_cycle;Max_cycle;Signal;HPM_P1;HPM_P2
2022/12/31 00:02:32;;;;;;;1.00;1.00;;;;;;;17.38;58.83;98534.19;6945238;28;20246;-76
2022/12/31 00:05:53;;;;;;;1.47;0.90;;;;;;;18.05;56.35;98530.78;6945589;28;20381;-76
2022/12/31 00:09:15;;;;;;;1.00;1.00;;;;;;;18.19;55.98;98526.56;6943300;28;20386;-76
2022/12/31 00:12:38;;;;;;;0.97;0.97;;;;;;;17.90;56.73;98502.56;6945913;28;20199;-76
2022/12/31 00:16:06;;;;;;;0.93;0.93;;;;;;;18.34;55.17;98523.97;6945545;28;20272;-76
2022/12/31 00:19:27;;;;;;;1.27;1.17;;;;;;;18.31;55.67;98523.66;6945720;28;20252;-76
2022/12/31 00:22:49;;;;;;;0.90;0.90;;;;;;;17.93;56.58;98508.31;6945531;28;20267;-77
2022/12/31 00:26:12;;;;;;;1.47;1.00;;;;;;;17.90;57.34;98544.31;6945150;28;20231;-76
2022/12/31 00:29:35;;;;;;;1.00;1.00;;;;;;;17.66;57.69;98553.03;6945163;28;20278;-75
2022/12/31 00:32:56;;;;;;;1.57;1.10;;;;;;;17.96;56.97;98543.28;6945209;28;20236;-76
2022/12/31 00:36:20;;;;;;;0.90;0.90;;;;;;;18.23;55.65;98554.16;6940228;28;20207;-76
2022/12/31 00:39:42;;;;;;;0.97;0.97;;;;;;;18.18;55.68;98541.31;6917796;28;20246;-77
2022/12/31 00:43:03;;;;;;;1.10;1.10;;;;;;;18.32;55.41;98544.44;6918122;28;20718;-77
2022/12/31 00:46:26;;;;;;;0.80;0.73;;;;;;;17.97;56.36;98566.75;6917503;28;20228;-76
2022/12/31 00:49:48;;;;;;;0.93;0.93;;;;;;;17.97;56.58;98558.56;6918358;28;20697;-76
2022/12/31 00:53:09;;;;;;;0.93;0.90;;;;;;;18.29;55.81;98567.56;6918047;28;20295;-76
2022/12/31 00:56:31;;;;;;;0.80;0.80;;;;;;;18.81;54.09;98560.34;6917260;28;20730;-76
2022/12/31 00:59:53;;;;;;;1.00;1.00;;;;;;;18.86;53.48;98565.06;6917842;28;20269;-77
2022/12/31 01:03:16;;;;;;;2.10;1.20;;;;;;;18.97;53.38;98569.47;6917311;28;20220;-77
2022/12/31 01:06:37;;;;;;;1.30;1.30;;;;;;;18.85;53.51;98596.16;6917542;28;20378;-77
2022/12/31 01:09:59;;;;;;;2.20;1.00;;;;;;;18.31;54.79;98573.66;6920783;28;20268;-76
2022/12/31 01:13:20;;;;;;;1.40;1.30;;;;;;;18.40;54.75;98595.84;6922966;28;20249;-76
2022/12/31 01:16:43;;;;;;;3.00;2.70;;;;;;;18.42;54.81;98596.38;6921824;28;20223;-77
2022/12/31 01:20:07;;;;;;;1.23;1.23;;;;;;;18.60;54.03;98601.44;6922128;28;20302;-77
2022/12/31 01:23:29;;;;;;;3.20;1.60;;;;;;;18.61;54.00;98575.78;6922784;28;20302;-76
2022/12/31 01:26:51;;;;;;;1.40;1.30;;;;;;;19.04;52.96;98603.69;6921030;28;20232;-77
2022/12/31 01:30:13;;;;;;;1.20;1.10;;;;;;;18.82;53.46;98622.09;6921991;28;20243;-77
2022/12/31 01:33:35;;;;;;;1.53;1.20;;;;;;;18.61;53.91;98628.50;6921824;28;20988;-76
2022/12/31 01:36:58;;;;;;;1.13;1.07;;;;;;;18.58;54.26;98633.66;6921022;28;20227;-76
2022/12/31 01:40:19;;;;;;;2.20;1.17;;;;;;;18.83;53.12;98628.41;6922078;28;20739;-76
2022/12/31 01:43:44;;;;;;;1.00;1.00;;;;;;;18.20;55.04;98631.91;6921944;28;20238;-76
2022/12/31 01:47:12;;;;;;;1.50;1.40;;;;;;;18.38;54.54;98637.03;6921300;28;20649;-77
2022/12/31 01:50:37;;;;;;;1.30;1.30;;;;;;;18.53;54.47;98645.38;6921772;28;20345;-76
2022/12/31 01:54:01;;;;;;;1.17;1.07;;;;;;;18.21;54.75;98652.66;6921248;28;20548;-77
2022/12/31 01:57:24;;;;;;;1.20;1.10;;;;;;;18.16;55.06;98629.97;6920990;28;20314;-77
2022/12/31 02:00:47;;;;;;;1.70;1.00;;;;;;;18.65;53.74;98639.72;6920661;28;20350;-77
2022/12/31 02:04:12;;;;;;;1.60;1.27;;;;;;;18.24;54.50;98633.06;6921238;28;20617;-77
2022/12/31 02:07:34;;;;;;;1.30;1.20;;;;;;;18.32;54.12;98629.03;6919692;28;20326;-77
2022/12/31 02:10:57;;;;;;;1.03;1.03;;;;;;;18.80;53.22;98650.78;6921197;28;20201;-77
2022/12/31 02:14:21;;;;;;;1.13;1.13;;;;;;;18.48;53.79;98639.03;6921333;28;20262;-77
2022/12/31 02:17:49;;;;;;;1.10;1.10;;;;;;;18.61;53.46;98644.91;6919832;28;20757;-76
2022/12/31 02:21:36;;;;;;;1.30;1.20;;;;;;;18.20;54.00;98661.94;6920457;28;20198;-77
2022/12/31 02:25:37;;;;;;;1.00;1.00;;;;;;;18.51;53.31;98660.38;6918061;28;20291;-76
2022/12/31 02:29:23;;;;;;;1.30;1.20;;;;;;;18.34;53.62;98659.66;6809569;29;20265;-77
2022/12/31 02:33:03;;;;;;;1.30;1.30;;;;;;;18.77;52.53;98659.50;6841555;28;20237;-77
2022/12/31 02:36:28;;;;;;;1.13;1.03;;;;;;;18.94;51.71;98658.28;6919434;28;20684;-77
2022/12/31 02:39:49;;;;;;;1.10;1.10;;;;;;;18.68;52.09;98634.56;6923553;28;20292;-77
2022/12/31 02:43:11;;;;;;;1.30;1.30;;;;;;;18.52;52.71;98651.91;6920420;28;20225;-77
2022/12/31 02:46:38;;;;;;;1.40;1.30;;;;;;;18.56;53.00;98635.81;6919187;28;20273;-77
2022/12/31 02:50:13;;;;;;;1.40;1.30;;;;;;;18.36;53.02;98641.09;6920015;28;20299;-78
2022/12/31 02:53:50;;;;;;;1.00;1.00;;;;;;;18.53;52.56;98630.88;6920270;28;20557;-77
2022/12/31 02:57:17;;;;;;;0.90;0.90;;;;;;;18.57;52.44;98624.63;6932904;28;20219;-77
2022/12/31 03:04:35;;;;;;;0.97;0.97;;;;;;;18.55;52.18;98629.56;6946783;28;20215;-77
2022/12/31 03:07:58;;;;;;;1.23;1.23;;;;;;;18.66;51.93;98625.81;6945204;28;20230;-77
2022/12/31 03:14:54;;;;;;;3.23;1.10;;;;;;;18.53;52.38;98609.03;6946246;28;20267;-78
2022/12/31 03:22:26;;;;;;;1.47;1.37;;;;;;;18.62;52.07;98630.16;6945957;28;20318;-77
2022/12/31 03:25:39;;;;;;;1.43;1.17;;;;;;;18.83;51.67;98634.69;6946127;28;20223;-77
2022/12/31 03:29:01;;;;;;;1.30;1.20;;;;;;;18.61;52.30;98644.06;6943896;28;20290;-77
2022/12/31 03:32:22;;;;;;;1.67;1.20;;;;;;;19.02;51.03;98635.09;6945779;28;20341;-77
2022/12/31 03:35:46;;;;;;;1.13;1.03;;;;;;;18.70;51.78;98646.03;6946194;28;20203;-77
2022/12/31 03:39:07;;;;;;;1.20;1.13;;;;;;;18.64;51.92;98646.28;6944867;28;20315;-77
2022/12/31 03:42:30;;;;;;;1.33;1.23;;;;;;;18.63;52.01;98671.94;6946466;28;20260;-77
2022/12/31 03:45:52;;;;;;;1.03;1.03;;;;;;;19.14;51.00;98663.03;6945882;28;20368;-77
2022/12/31 03:49:14;;;;;;;1.93;1.83;;;;;;;19.12;51.02;98679.72;6945052;28;20234;-77
2022/12/31 03:52:35;;;;;;;1.00;1.00;;;;;;;18.97;51.56;98660.47;6946457;28;20290;-77
2022/12/31 03:55:57;;;;;;;1.20;1.10;;;;;;;19.06;51.38;98667.13;6946257;28;20292;-77
2022/12/31 03:59:19;;;;;;;1.83;1.00;;;;;;;19.13;51.41;98678.63;6945601;28;20322;-77
2022/12/31 04:02:41;;;;;;;0.80;0.80;;;;;;;19.03;51.86;98675.81;6945922;28;20215;-77
2022/12/31 04:06:03;;;;;;;1.00;1.00;;;;;;;19.20;51.48;98681.97;6945392;28;20280;-77
2022/12/31 04:09:24;;;;;;;0.83;0.83;;;;;;;19.38;51.12;98678.81;6944495;28;20231;-78
2022/12/31 04:12:46;;;;;;;1.23;1.13;;;;;;;19.34;51.20;98690.56;6945524;28;20299;-77
2022/12/31 04:16:09;;;;;;;0.97;0.90;;;;;;;19.10;51.83;98686.53;6945570;28;20207;-77
2022/12/31 04:19:30;;;;;;;1.30;1.30;;;;;;;19.02;52.02;98676.06;6945587;28;20227;-77
2022/12/31 04:22:52;;;;;;;0.80;0.80;;;;;;;19.13;51.60;98675.91;6945669;28;20245;-77
2022/12/31 04:26:13;;;;;;;0.90;0.90;;;;;;;19.58;50.70;98691.81;6945225;28;20230;-77
2022/12/31 04:29:35;;;;;;;0.80;0.80;;;;;;;19.46;51.05;98696.66;6945424;28;20298;-77
2022/12/31 04:32:58;;;;;;;1.03;0.80;;;;;;;19.02;51.55;98652.31;6945355;28;20348;-77
2022/12/31 04:36:19;;;;;;;0.90;0.90;;;;;;;19.07;51.98;98676.97;6944869;28;20225;-76
2022/12/31 04:39:41;;;;;;;1.13;0.97;;;;;;;19.59;50.76;98688.81;6945120;28;20333;-77
2022/12/31 04:43:02;;;;;;;1.50;1.40;;;;;;;19.30;50.99;98682.06;6950123;28;20294;-77
2022/12/31 04:46:26;;;;;;;1.20;1.10;;;;;;;19.41;51.23;98689.22;6949664;28;20235;-77
2022/12/31 04:49:48;;;;;;;0.70;0.70;;;;;;;19.68;50.42;98697.31;6950471;28;20243;-77
2022/12/31 04:53:10;;;;;;;0.97;0.97;;;;;;;19.24;51.58;98704.16;6951080;28;20225;-76
2022/12/31 04:56:35;;;;;;;0.90;0.90;;;;;;;19.13;51.72;98686.00;6945791;28;20196;-77
2022/12/31 04:59:56;;;;;;;1.10;0.80;;;;;;;19.50;50.90;98703.22;6922600;28;20208;-77
2022/12/31 05:03:18;;;;;;;0.70;0.70;;;;;;;19.60;50.85;98693.19;6921935;28;20310;-77
2022/12/31 05:06:41;;;;;;;0.60;0.60;;;;;;;19.22;51.73;98695.41;6921306;28;20741;-77
2022/12/31 05:10:03;;;;;;;0.53;0.53;;;;;;;18.79;53.55;98703.75;6921092;28;20290;-77
2022/12/31 05:13:25;;;;;;;1.43;0.80;;;;;;;19.02;52.88;98679.66;6921579;28;20259;-77
2022/12/31 05:16:47;;;;;;;0.80;0.80;;;;;;;18.99;53.16;98702.00;6921309;28;20273;-77
2022/12/31 05:20:09;;;;;;;1.17;0.87;;;;;;;18.82;54.09;98706.78;6922531;28;20294;-77
2022/12/31 05:23:31;;;;;;;0.83;0.70;;;;;;;19.31;52.61;98707.47;6939998;28;20253;-77
2022/12/31 05:26:53;;;;;;;0.73;0.73;;;;;;;19.49;52.01;98715.25;6948601;28;20234;-76
2022/12/31 05:30:14;;;;;;;0.90;0.90;;;;;;;19.25;52.78;98723.03;6949435;28;20207;-76
2022/12/31 05:33:36;;;;;;;1.53;0.80;;;;;;;19.22;53.19;98720.81;6949105;28;20270;-76
2022/12/31 05:36:57;;;;;;;1.20;1.10;;;;;;;19.35;52.66;98717.63;6947931;28;20313;-76
2022/12/31 05:40:20;;;;;;;0.73;0.73;;;;;;;19.09;53.17;98706.72;6948243;28;20286;-77
2022/12/31 05:43:42;;;;;;;1.07;0.90;;;;;;;18.89;54.43;98751.13;6948922;28;20660;-74
2022/12/31 05:47:04;;;;;;;1.60;0.90;;;;;;;19.34;53.04;98734.31;6947587;28;20372;-76
2022/12/31 05:50:25;;;;;;;0.70;0.70;;;;;;;19.34;53.10;98735.13;6948272;28;20741;-77
2022/12/31 05:53:47;;;;;;;0.80;0.80;;;;;;;19.39;52.65;98739.81;6947303;28;20682;-76
2022/12/31 05:57:09;;;;;;;1.30;0.93;;;;;;;19.30;53.29;98736.75;6948205;28;20322;-76
2022/12/31 06:00:31;;;;;;;1.67;1.10;;;;;;;19.18;53.35;98735.25;6947905;28;20215;-77
2022/12/31 06:03:52;;;;;;;1.20;1.20;;;;;;;19.16;53.22;98715.56;6948381;28;20340;-76
2022/12/31 06:07:14;;;;;;;0.90;0.90;;;;;;;19.48;52.71;98744.53;6947646;28;20688;-76
2022/12/31 06:10:36;;;;;;;0.90;0.90;;;;;;;19.33;52.88;98754.53;6947103;28;20224;-76
2022/12/31 06:13:59;;;;;;;1.00;1.00;;;;;;;19.63;52.30;98752.81;6948050;28;20711;-77
2022/12/31 06:17:21;;;;;;;0.80;0.80;;;;;;;19.33;52.73;98746.34;6947222;28;20356;-77
2022/12/31 06:20:42;;;;;;;1.40;0.93;;;;;;;19.42;52.98;98772.09;6947734;28;20210;-77
2022/12/31 06:24:04;;;;;;;1.20;1.10;;;;;;;19.49;52.53;98781.72;6947525;28;20749;-77
2022/12/31 06:27:26;;;;;;;0.80;0.80;;;;;;;19.15;53.59;98771.28;6967542;28;20299;-77
2022/12/31 06:30:49;;;;;;;1.60;1.50;;;;;;;18.96;52.81;98712.66;6974405;28;20659;-76
2022/12/31 06:34:11;;;;;;;1.40;1.30;;;;;;;19.67;52.13;98784.03;6974520;28;20206;-77
2022/12/31 06:37:32;;;;;;;0.70;0.70;;;;;;;19.67;51.92;98785.94;6973888;28;20250;-78
2022/12/31 06:40:54;;;;;;;1.03;0.83;;;;;;;19.97;50.92;98805.28;6974521;28;20724;-77
2022/12/31 06:44:15;;;;;;;0.87;0.87;;;;;;;19.52;51.92;98799.53;6957236;28;20207;-77
2022/12/31 06:47:38;;;;;;;1.00;1.00;;;;;;;19.20;53.28;98812.31;6945908;28;20238;-78
2022/12/31 06:51:04;;;;;;;0.80;0.80;;;;;;;19.64;51.62;98802.88;6946335;28;20207;-77
2022/12/31 06:54:25;;;;;;;1.30;1.10;;;;;;;19.87;50.75;98811.50;6945374;28;20214;-77
2022/12/31 06:57:47;;;;;;;1.33;1.23;;;;;;;19.87;51.16;98792.34;6937818;28;20284;-76
2022/12/31 07:01:27;;;;;;;0.80;0.80;;;;;;;19.68;50.99;98774.72;6918837;28;20238;-77
2022/12/31 07:05:05;;;;;;;1.03;0.93;;;;;;;20.05;50.45;98777.41;6919388;28;20309;-77
2022/12/31 07:08:36;;;;;;;1.00;1.00;;;;;;;20.07;50.13;98786.22;6916913;28;20312;-77
2022/12/31 07:12:04;;;;;;;1.20;1.10;;;;;;;19.93;50.41;98774.06;6920812;28;20286;-77
2022/12/31 07:15:37;;;;;;;0.80;0.80;;;;;;;19.91;50.46;98793.47;6920397;28;20315;-77
2022/12/31 07:19:08;;;;;;;0.90;0.90;;;;;;;19.49;51.26;98784.47;6945965;28;20369;-77
2022/12/31 07:22:31;;;;;;;1.33;1.30;;;;;;;19.55;51.16;98788.88;6947367;28;20216;-77
2022/12/31 07:25:56;;;;;;;1.73;1.63;;;;;;;19.11;52.12;98781.09;6947292;28;20271;-77
2022/12/31 07:29:21;;;;;;;1.20;1.03;;;;;;;19.85;50.37;98785.50;6946484;28;20365;-77
2022/12/31 07:32:59;;;;;;;1.67;1.47;;;;;;;19.88;49.78;98774.03;6947329;28;20680;-77
2022/12/31 07:36:31;;;;;;;1.33;1.20;;;;;;;19.78;50.62;98810.38;6919597;28;20192;-77
2022/12/31 07:40:01;;;;;;;1.20;1.20;;;;;;;20.05;49.54;98805.59;6919853;28;20204;-78
2022/12/31 07:43:30;;;;;;;1.00;1.00;;;;;;;19.92;49.88;98802.53;6919591;28;20223;-77
2022/12/31 07:46:55;;;;;;;0.90;0.90;;;;;;;19.58;50.85;98802.00;6919151;28;20230;-77
2022/12/31 07:50:18;;;;;;;0.90;0.90;;;;;;;19.58;50.88;98812.94;6919358;28;20211;-77
2022/12/31 07:53:39;;;;;;;0.87;0.87;;;;;;;19.88;50.05;98823.28;6941949;28;20249;-78
2022/12/31 07:57:02;;;;;;;0.83;0.83;;;;;;;19.99;49.73;98817.59;6918866;28;20287;-77
2022/12/31 08:00:24;;;;;;;1.20;1.10;;;;;;;20.09;49.59;98827.81;6919489;28;20578;-77
2022/12/31 08:03:52;;;;;;;1.30;1.27;;;;;;;20.10;49.17;98834.97;6919503;28;20200;-77
2022/12/31 08:07:19;;;;;;;2.80;1.90;;;;;;;20.13;49.16;98838.00;6918858;28;20369;-77
2022/12/31 08:10:46;;;;;;;4.70;1.40;;;;;;;20.34;48.66;98842.47;6918645;28;20230;-77
2022/12/31 08:14:12;;;;;;;1.77;1.43;;;;;;;20.67;47.83;98830.28;6944587;28;20309;-76
2022/12/31 08:17:33;;;;;;;0.83;0.83;;;;;;;20.47;48.04;98846.63;6943132;28;20317;-76
2022/12/31 08:21:04;;;;;;;2.30;1.10;;;;;;;20.00;49.47;98852.13;6924842;28;20690;-77
2022/12/31 08:24:30;;;;;;;1.40;1.30;;;;;;;20.35;48.36;98846.03;6949294;28;20195;-75
2022/12/31 08:28:00;;;;;;;0.97;0.93;;;;;;;20.32;48.38;98844.66;6937943;28;20227;-76
2022/12/31 08:31:28;;;;;;;2.37;1.03;;;;;;;20.71;47.81;98836.88;6924034;28;20200;-76
2022/12/31 08:34:58;;;;;;;2.50;1.17;;;;;;;20.77;47.36;98833.06;6924221;28;20280;-76
2022/12/31 08:38:27;;;;;;;0.80;0.80;;;;;;;20.93;47.23;98845.75;6923436;28;20314;-76
2022/12/31 08:41:51;;;;;;;1.00;1.00;;;;;;;20.78;47.07;98822.63;6923706;28;20204;-76
2022/12/31 08:45:18;;;;;;;0.87;0.87;;;;;;;20.76;47.09;98845.09;6950838;28;20278;-76
2022/12/31 08:48:42;;;;;;;1.20;1.20;;;;;;;20.81;47.22;98848.69;6950725;28;20325;-77
2022/12/31 08:52:06;;;;;;;0.90;0.90;;;;;;;20.01;48.71;98853.75;6951663;28;20253;-77
2022/12/31 08:55:28;;;;;;;1.00;1.00;;;;;;;20.36;48.40;98873.16;6951533;28;20345;-77
2022/12/31 08:58:57;;;;;;;2.20;1.00;;;;;;;20.27;48.01;98852.03;6950930;28;20226;-76
2022/12/31 09:02:26;;;;;;;1.10;1.10;;;;;;;20.40;47.70;98867.97;6928338;28;20369;-81
2022/12/31 09:05:57;;;;;;;0.90;0.90;;;;;;;20.98;46.71;98893.16;6923687;28;20274;-76
2022/12/31 09:09:24;;;;;;;1.20;0.90;;;;;;;20.93;46.04;98826.56;6943042;28;20230;-77
2022/12/31 09:12:53;;;;;;;2.03;1.20;;;;;;;21.33;46.09;98893.25;6949990;28;20689;-75
2022/12/31 09:16:18;;;;;;;3.03;1.07;;;;;;;21.38;46.14;98887.78;6949610;28;20263;-76
2022/12/31 09:19:42;;;;;;;1.17;1.10;;;;;;;20.91;46.58;98865.19;6947623;28;20227;-76
2022/12/31 09:23:06;;;;;;;1.13;1.03;;;;;;;21.01;46.75;98891.81;6949755;28;20224;-77
2022/12/31 09:26:45;;;;;;;1.47;1.27;;;;;;;21.55;45.67;98891.09;6949222;28;20691;-76
2022/12/31 09:30:09;;;;;;;0.97;0.97;;;;;;;21.40;45.54;98894.66;6949551;28;20341;-77
2022/12/31 09:33:37;;;;;;;1.53;1.23;;;;;;;21.40;45.51;98882.84;6950212;28;20654;-78
2022/12/31 09:37:03;;;;;;;1.03;0.93;;;;;;;21.27;45.52;98895.19;6921632;28;20413;-77
2022/12/31 09:40:46;;;;;;;1.30;1.17;;;;;;;21.65;44.99;98871.91;6922517;28;20223;-78
2022/12/31 09:44:52;;;;;;;1.70;1.60;;;;;;;21.79;45.18;98904.03;6922987;28;20635;-77
2022/12/31 09:48:47;;;;;;;1.10;1.03;;;;;;;21.54;45.26;98893.00;6810279;29;20259;-77
2022/12/31 09:52:17;;;;;;;1.17;1.17;;;;;;;21.69;45.37;98901.28;6877946;28;20293;-78
2022/12/31 09:55:45;;;;;;;1.37;1.27;;;;;;;22.14;44.14;98890.25;6951991;28;20268;-77
2022/12/31 09:59:14;;;;;;;1.20;1.00;;;;;;;21.70;44.92;98893.84;6950098;28;20766;-77
2022/12/31 10:02:52;;;;;;;1.00;1.00;;;;;;;21.95;44.19;98894.69;6950132;28;20728;-77
2022/12/31 10:06:22;;;;;;;0.90;0.90;;;;;;;22.57;42.92;98891.56;6944597;28;20284;-77
2022/12/31 10:09:52;;;;;;;0.90;0.90;;;;;;;23.13;41.94;98893.78;6947636;28;20298;-77
2022/12/31 10:13:32;;;;;;;1.23;0.90;;;;;;;22.32;42.63;98853.16;6949040;28;20225;-77
2022/12/31 10:17:01;;;;;;;3.13;1.17;;;;;;;22.51;42.27;98807.50;6948074;28;20370;-77
2022/12/31 10:20:32;;;;;;;0.97;0.97;;;;;;;23.07;41.40;98874.84;6949146;28;20193;-77
2022/12/31 10:24:22;;;;;;;0.90;0.90;;;;;;;22.78;41.83;98879.41;6943412;28;20277;-78
2022/12/31 10:27:49;;;;;;;1.00;1.00;;;;;;;22.98;41.80;98866.38;6938440;28;20716;-77
2022/12/31 10:31:16;;;;;;;1.20;1.10;;;;;;;23.32;40.70;98872.81;6948522;28;20209;-77
2022/12/31 10:34:51;;;;;;;1.10;1.00;;;;;;;22.66;40.89;98868.72;6948731;28;20203;-77
2022/12/31 10:38:22;;;;;;;0.77;0.77;;;;;;;23.07;41.37;98875.66;6947513;28;20230;-77
2022/12/31 10:42:31;;;;;;;0.80;0.80;;;;;;;23.53;39.90;98885.28;6946322;28;20655;-77
2022/12/31 10:46:37;;;;;;;1.00;0.87;;;;;;;22.83;40.64;98882.13;6900754;28;20343;-78
2022/12/31 10:50:14;;;;;;;1.20;1.10;;;;;;;22.89;40.83;98879.06;6927601;28;20236;-77
2022/12/31 10:54:01;;;;;;;1.67;1.00;;;;;;;23.71;39.31;98862.56;6948185;28;20285;-77
2022/12/31 10:58:06;;;;;;;1.03;1.03;;;;;;;23.48;39.91;98863.31;6945366;28;20305;-77
2022/12/31 11:01:33;;;;;;;1.23;1.13;;;;;;;23.77;39.53;98857.84;6909918;28;20304;-77
2022/12/31 11:05:24;;;;;;;1.23;1.13;;;;;;;23.99;38.23;98867.31;6919677;28;20595;-78
2022/12/31 11:08:58;;;;;;;0.90;0.90;;;;;;;24.25;38.21;98854.91;6918820;28;20324;-78
2022/12/31 11:12:32;;;;;;;0.97;0.97;;;;;;;23.75;38.59;98840.78;6938061;28;20240;-77
2022/12/31 11:16:06;;;;;;;1.70;1.07;;;;;;;23.79;38.43;98861.94;6936505;28;20288;-79
2022/12/31 11:19:33;;;;;;;2.37;1.30;;;;;;;24.05;37.95;98854.31;6946237;28;20219;-76
2022/12/31 11:23:04;;;;;;;0.97;0.93;;;;;;;23.65;38.62;98843.66;6947188;28;20336;-77
2022/12/31 11:26:35;;;;;;;1.50;1.00;;;;;;;23.88;38.16;98832.72;6946365;28;20286;-78
2022/12/31 11:30:04;;;;;;;1.00;0.97;;;;;;;23.24;39.45;98839.56;6947174;28;20219;-77
2022/12/31 11:33:34;;;;;;;0.90;0.60;;;;;;;23.96;38.56;98826.56;6947628;28;20275;-74
2022/12/31 11:37:09;;;;;;;1.40;1.30;;;;;;;24.03;37.63;98829.00;6941281;28;20225;-76
2022/12/31 11:40:41;;;;;;;1.77;0.97;;;;;;;23.70;38.45;98833.41;6946486;28;20225;-77
2022/12/31 11:44:16;;;;;;;1.13;1.10;;;;;;;23.77;38.38;98814.59;6943256;28;20206;-77
2022/12/31 11:47:50;;;;;;;2.10;1.20;;;;;;;23.78;37.96;98821.75;6946090;28;20724;-77
2022/12/31 11:51:33;;;;;;;1.10;1.10;;;;;;;23.90;37.86;98830.47;6918439;28;20209;-76
2022/12/31 11:55:02;;;;;;;1.27;1.17;;;;;;;23.75;37.62;98816.84;6918662;28;20201;-76
2022/12/31 11:58:27;;;;;;;0.70;0.70;;;;;;;23.60;38.00;98821.66;6921250;28;20361;-76
2022/12/31 12:01:52;;;;;;;2.83;0.77;;;;;;;24.16;37.20;98820.84;6918702;28;20807;-76
2022/12/31 12:05:16;;;;;;;1.27;0.90;;;;;;;24.55;36.71;98802.19;6919152;28;20220;-76
2022/12/31 12:08:37;;;;;;;0.87;0.87;;;;;;;24.80;36.22;98807.41;6918169;28;20561;-76
2022/12/31 12:12:01;;;;;;;0.90;0.90;;;;;;;24.78;35.86;98814.34;6918325;28;20202;-76
2022/12/31 12:15:26;;;;;;;2.43;1.20;;;;;;;23.86;37.92;98799.13;6936168;28;20683;-76
2022/12/31 12:18:49;;;;;;;0.93;0.93;;;;;;;24.25;37.63;98801.75;6945187;28;20311;-75
2022/12/31 12:22:12;;;;;;;0.97;0.97;;;;;;;24.50;36.90;98799.50;6946031;28;20210;-77
2022/12/31 12:25:38;;;;;;;0.97;0.97;;;;;;;24.76;36.57;98803.59;6946878;28;20671;-82
2022/12/31 12:29:01;;;;;;;2.47;0.90;;;;;;;24.38;37.47;98799.13;6947397;28;20231;-78
2022/12/31 12:32:26;;;;;;;1.00;0.97;;;;;;;24.30;37.57;98783.22;6948277;28;20209;-77
2022/12/31 12:35:47;;;;;;;0.93;0.93;;;;;;;24.53;37.37;98789.81;6965044;28;20232;-78
2022/12/31 12:39:20;;;;;;;1.20;1.00;;;;;;;24.37;38.17;98797.44;6919798;28;20219;-78
2022/12/31 12:42:47;;;;;;;1.00;0.97;;;;;;;24.03;37.29;98763.72;6946390;28;20284;-78
2022/12/31 12:46:19;;;;;;;1.67;1.27;;;;;;;24.20;37.82;98790.78;6945067;28;20200;-78
2022/12/31 12:49:44;;;;;;;2.80;1.20;;;;;;;24.56;37.56;98790.06;6946047;28;20236;-78
2022/12/31 12:53:15;;;;;;;1.97;1.13;;;;;;;24.76;36.21;98777.94;6946504;28;20616;-78
2022/12/31 12:56:42;;;;;;;0.77;0.77;;;;;;;24.52;36.85;98782.66;6945295;28;20686;-78
2022/12/31 13:00:15;;;;;;;1.40;1.30;;;;;;;24.54;37.27;98781.25;6947187;28;20666;-78
2022/12/31 13:04:15;;;;;;;1.10;1.10;;;;;;;24.16;37.69;98781.44;6949404;28;20227;-78
2022/12/31 13:07:46;;;;;;;0.90;0.90;;;;;;;23.93;37.40;98771.25;6950717;28;20226;-78
2022/12/31 13:11:20;;;;;;;2.00;0.97;;;;;;;24.69;36.57;98767.31;6948536;28;20352;-77
2022/12/31 13:14:46;;;;;;;1.67;0.90;;;;;;;24.31;37.12;98784.84;6923840;28;20623;-78
2022/12/31 13:18:16;;;;;;;1.00;1.00;;;;;;;24.37;37.42;98780.91;6942175;28;20230;-78
2022/12/31 13:21:45;;;;;;;1.67;1.00;;;;;;;24.53;36.50;98751.22;6941286;28;20257;-78
2022/12/31 13:25:21;;;;;;;1.57;1.27;;;;;;;24.65;36.95;98780.03;6923530;28;20229;-78
2022/12/31 13:28:43;;;;;;;1.37;1.17;;;;;;;24.46;37.37;98761.78;6922612;28;20302;-78
2022/12/31 13:32:06;;;;;;;1.73;1.20;;;;;;;24.38;37.41;98760.53;6927152;28;20670;-78
2022/12/31 13:35:34;;;;;;;2.77;1.30;;;;;;;24.08;37.89;98765.56;6950272;28;20214;-78
2022/12/31 13:38:58;;;;;;;0.70;0.67;;;;;;;24.00;37.42;98760.69;6949496;28;20220;-78
2022/12/31 13:42:25;;;;;;;1.33;1.10;;;;;;;24.43;37.81;98752.16;6951025;28;20691;-78
2022/12/31 13:45:51;;;;;;;1.10;1.00;;;;;;;24.34;37.67;98753.13;6950520;28;20262;-78
2022/12/31 13:49:17;;;;;;;1.20;1.10;;;;;;;24.37;37.20;98745.06;6948982;28;20324;-78
2022/12/31 13:52:40;;;;;;;3.33;1.70;;;;;;;23.88;38.46;98747.34;6949758;28;20207;-78
2022/12/31 13:56:05;;;;;;;1.37;1.23;;;;;;;24.34;37.46;98740.19;6950143;28;20341;-78
2022/12/31 13:59:29;;;;;;;1.23;1.17;;;;;;;24.28;37.88;98752.38;6951282;28;20708;-77
2022/12/31 14:02:57;;;;;;;1.57;1.20;;;;;;;24.45;37.98;98751.88;6949273;28;20347;-77
2022/12/31 14:06:25;;;;;;;1.60;1.37;;;;;;;23.77;38.93;98734.75;6948056;28;20298;-76
2022/12/31 14:09:46;;;;;;;3.27;1.67;;;;;;;24.06;40.02;98729.25;6948908;28;20237;-77
2022/12/31 14:13:22;;;;;;;3.10;1.60;;;;;;;23.91;40.56;98735.75;6948556;28;20666;-76
2022/12/31 14:16:49;;;;;;;2.37;1.80;;;;;;;23.28;41.70;98741.56;6948538;28;20297;-77
2022/12/31 14:20:18;;;;;;;5.50;2.23;;;;;;;23.32;41.42;98745.41;6948472;28;20195;-77
2022/12/31 14:23:48;;;;;;;4.03;2.50;;;;;;;23.23;42.12;98741.59;6947254;28;20278;-77
2022/12/31 14:27:14;;;;;;;4.90;2.90;;;;;;;23.04;42.51;98740.63;6944594;28;20742;-78
2022/12/31 14:30:39;;;;;;;5.03;2.87;;;;;;;22.84;43.56;98746.28;6936919;28;20647;-77
2022/12/31 14:34:06;;;;;;;3.73;3.30;;;;;;;22.75;44.04;98740.56;6949039;28;20227;-78
2022/12/31 14:37:34;;;;;;;30.73;23.33;;;;;;;22.95;43.08;98750.63;6948495;28;20299;-78
2022/12/31 14:41:04;;;;;;;4.33;3.27;;;;;;;22.47;44.39;98760.50;6948462;28;20248;-78
2022/12/31 14:44:39;;;;;;;5.87;3.20;;;;;;;22.51;43.89;98758.03;6948775;28;20228;-79
2022/12/31 14:48:04;;;;;;;3.90;2.90;;;;;;;22.59;43.92;98763.75;6948300;28;20761;-80
2022/12/31 14:51:28;;;;;;;2.87;2.40;;;;;;;22.14;44.92;98754.88;6947892;28;20254;-76
2022/12/31 14:55:19;;;;;;;5.40;2.20;;;;;;;22.36;43.34;98763.59;6948192;28;20348;-77
2022/12/31 14:58:41;;;;;;;2.30;2.10;;;;;;;22.21;44.30;98769.97;6940746;28;20218;-77
2022/12/31 15:02:02;;;;;;;4.87;2.43;;;;;;;21.24;46.96;98775.03;6947315;28;20224;-77
2022/12/31 15:05:25;;;;;;;2.80;2.60;;;;;;;21.55;46.20;98773.91;6947630;28;20231;-76
2022/12/31 15:08:55;;;;;;;2.27;2.07;;;;;;;21.49;45.77;98755.81;6947555;28;20226;-77
2022/12/31 15:12:33;;;;;;;3.50;2.30;;;;;;;21.38;46.16;98770.66;6945774;28;20210;-77
2022/12/31 15:16:18;;;;;;;4.63;2.20;;;;;;;21.47;45.94;98769.00;6948042;28;20277;-75
2022/12/31 15:20:05;;;;;;;6.27;2.17;;;;;;;20.99;47.43;98781.59;6941099;28;20211;-77
2022/12/31 15:23:33;;;;;;;3.67;2.60;;;;;;;20.71;48.48;98780.16;6931514;28;20255;-77
2022/12/31 15:26:57;;;;;;;2.77;2.40;;;;;;;20.77;47.09;98770.84;6922250;28;20222;-78
2022/12/31 15:30:38;;;;;;;4.93;2.90;;;;;;;20.80;48.01;98783.19;6947415;28;20325;-78
2022/12/31 15:34:01;;;;;;;2.93;2.23;;;;;;;20.64;46.60;98776.03;6948609;28;20199;-78
2022/12/31 15:37:28;;;;;;;2.80;2.43;;;;;;;20.72;46.24;98775.47;6948293;28;20278;-79
2022/12/31 15:40:51;;;;;;;3.83;2.70;;;;;;;20.85;45.64;98789.50;6949462;28;20336;-79
2022/12/31 15:44:18;;;;;;;4.07;2.10;;;;;;;20.85;45.07;98786.75;6949325;28;20292;-79
2022/12/31 15:47:42;;;;;;;1.83;1.37;;;;;;;21.05;44.26;98786.00;6928478;28;20305;-75
2022/12/31 15:51:05;;;;;;;2.27;2.07;;;;;;;21.35;43.90;98786.81;6929031;28;20315;-79
2022/12/31 15:54:34;;;;;;;2.30;2.03;;;;;;;21.62;43.21;98787.38;6927070;28;20349;-77
2022/12/31 15:58:00;;;;;;;2.83;2.00;;;;;;;21.35;43.87;98793.13;6922715;28;20231;-76
2022/12/31 16:01:25;;;;;;;3.70;2.00;;;;;;;21.29;44.18;98801.63;6927281;28;20234;-79
2022/12/31 16:04:47;;;;;;;2.90;2.30;;;;;;;20.83;46.17;98799.91;6945103;28;20294;-80
2022/12/31 16:08:17;;;;;;;5.40;2.60;;;;;;;20.26;46.65;98760.84;6943935;28;20314;-79
2022/12/31 16:11:40;;;;;;;3.87;2.70;;;;;;;20.31;47.31;98815.63;6945384;28;20650;-79
2022/12/31 16:15:02;;;;;;;4.43;2.83;;;;;;;20.26;47.97;98818.34;6945417;28;20199;-77
2022/12/31 16:18:25;;;;;;;5.57;3.23;;;;;;;19.66;49.47;98815.22;6944502;28;20235;-82
2022/12/31 16:21:46;;;;;;;4.33;3.20;;;;;;;19.32;50.33;98811.13;6945830;28;20218;-84
2022/12/31 16:25:19;;;;;;;3.47;2.90;;;;;;;19.25;50.41;98821.44;6928808;28;20348;-81
2022/12/31 16:28:41;;;;;;;5.50;3.30;;;;;;;19.23;50.82;98820.06;6943196;28;20297;-79